Portada
METAR-TAF:

METAR-TAF

Aeroports :

Columbia, Missouri, Estats Units d'Amèrica

latitud: 38-49-01N, longitud: 092-13-06W, altitud: 271 m

Observació

L'informe es va fer fa 51 minuts, a les 16:54 UTC
Vent 8 kt del Sud/Sud-Oest amb ràfegues de 17 kt
Temperatura 29°C
Humitat 58%
Pressió 1023 hPa
Visibilitat: 16.1 km
Cel clar

METAR: KCOU 191654Z 21008G17KT 10SM CLR 29/20 A3020 RMK AO2 SLP218 T02890200 $

Hora: 12:45 (17:45 UTC)

Pronòstic

L'informe es va fer fa 25 minuts, a les 17:20 UTC
Pronòstic vàlid del 19 a les 18 UTC al 20 a les 18 UTC
Vent 9 kt del Sud amb ràfegues de 19 kt
Visibilitat: 10 km
Núvols disperses a una alçada de 6000 ft
A partir de les 20 a les 0100 UTC
Vent 4 kt del Sud/Sud-Est
Visibilitat: 10 km
Núvols disperses a una alçada de 25000 ft

TAF: KCOU 191720Z 1918/2018 19009G19KT P6SM SCT060 FM200100 15004KT P6SM SCT250

Observacions i pronòstics meteorològics de més de 4000 aeroports (METAR i TAF).

Les estacions disponibles són els punts grocs i vermells al mapa.

Posi el ratolí al punt desitjat per veure el nom de l'estació.

Feu clic per veure les observacions i els pronòstics meteorològics.

Per canviar el mapa: feu clic els botons verds amb una creu de color negre per apropar; al botó verd amb un guió per allunyar la imatge; o en les fletxes verdes per a mapes adjacents.


METAR-TAF: